Kansas City, Missouri
Traffic Map
Current Weather Conditions
Kansas City, Missouri
Broken Clouds
Broken Clouds
75°
Feels Like: 75°
Wind Chill: 75° Ceiling: 3600
Heat Index: 75° Visibility: 10mi
Dew Point: 60° Wind: 9mph
Humidity: 60% Direction: 320° (NW)
Pressure: 30.22in Gusts: 0mph
Raw Report DataKMKC 281636Z AUTO 32008KT 10SM SCT029 BKN036 24/16 A3022 RMK AO2 T02390156
Traffic Incident Summary
Active as of:
Severity:
Category:
InformationThere was an issue retrieving the traffic information for this location. Please try a different location or try again shortly.
Advertisements
Track Severe Weather on mobile